createdAt,value
2022-09-23T00:01:34.422Z,17.84
2022-09-23T00:04:01.063Z,17.84
2022-09-23T00:06:27.443Z,17.86
2022-09-23T00:08:55.085Z,17.84
2022-09-23T00:11:22.560Z,17.84
2022-09-23T00:13:49.656Z,17.86
2022-09-23T00:16:18.427Z,17.84
2022-09-23T00:18:44.950Z,17.83
2022-09-23T00:21:12.594Z,17.78
2022-09-23T00:23:39.581Z,17.77
2022-09-23T00:26:08.314Z,17.80
2022-09-23T00:28:35.003Z,17.80
2022-09-23T00:31:02.357Z,17.80
2022-09-23T00:33:28.729Z,17.79
2022-09-23T00:35:58.721Z,17.78
2022-09-23T00:38:25.051Z,17.76
2022-09-23T00:40:51.499Z,17.77
2022-09-23T00:43:19.385Z,17.76
2022-09-23T00:45:47.499Z,17.76
2022-09-23T00:48:16.397Z,17.78
2022-09-23T00:50:43.571Z,17.76
2022-09-23T00:53:12.380Z,17.77
2022-09-23T00:55:41.181Z,17.78
2022-09-23T00:58:09.353Z,17.77
2022-09-23T01:00:37.126Z,17.77
2022-09-23T01:03:03.616Z,17.75
2022-09-23T01:05:29.976Z,17.77
2022-09-23T01:07:57.228Z,17.75
2022-09-23T01:10:24.121Z,17.76
2022-09-23T01:12:59.421Z,17.74
2022-09-23T01:15:28.340Z,17.73
2022-09-23T01:17:59.721Z,17.73
2022-09-23T01:20:36.683Z,17.74
2022-09-23T01:23:10.145Z,17.71
2022-09-23T01:25:44.907Z,17.72
2022-09-23T01:28:26.011Z,17.71
2022-09-23T01:30:57.612Z,17.74
2022-09-23T01:33:24.924Z,17.73
2022-09-23T01:36:00.565Z,17.74
2022-09-23T01:38:34.682Z,17.72
2022-09-23T01:41:04.407Z,17.72
2022-09-23T01:43:34.859Z,17.68
2022-09-23T01:46:07.100Z,17.67
2022-09-23T01:48:37.129Z,17.70
2022-09-23T01:51:07.499Z,17.71
2022-09-23T01:53:39.022Z,17.69
2022-09-23T01:56:09.665Z,17.70
2022-09-23T01:58:39.658Z,17.70
2022-09-23T02:01:08.524Z,17.71
2022-09-23T02:03:36.519Z,17.70
2022-09-23T02:06:06.640Z,17.71
2022-09-23T02:08:35.641Z,17.71
2022-09-23T02:11:03.792Z,17.71
2022-09-23T02:13:34.099Z,17.69
2022-09-23T02:16:03.097Z,17.68
2022-09-23T02:18:34.127Z,17.70
2022-09-23T02:21:04.146Z,17.68
2022-09-23T02:23:33.993Z,17.68
2022-09-23T02:26:04.603Z,17.65
2022-09-23T02:28:32.386Z,17.66
2022-09-23T02:31:04.973Z,17.68
2022-09-23T02:33:34.949Z,17.70
2022-09-23T02:36:05.479Z,17.68
2022-09-23T02:38:35.220Z,17.68
2022-09-23T02:41:04.721Z,17.68
2022-09-23T02:43:32.373Z,17.65
2022-09-23T02:45:58.815Z,17.68
2022-09-23T02:48:27.434Z,17.67
2022-09-23T02:50:55.332Z,17.65
2022-09-23T02:53:22.890Z,17.65
2022-09-23T02:55:49.263Z,17.63
2022-09-23T02:58:15.741Z,17.64
2022-09-23T03:00:46.609Z,17.68
2022-09-23T03:03:20.751Z,17.69
2022-09-23T03:05:52.879Z,17.69
2022-09-23T03:08:28.157Z,17.68
2022-09-23T03:10:55.258Z,17.69
2022-09-23T03:13:29.523Z,17.68
2022-09-23T03:16:00.145Z,17.65
2022-09-23T03:18:30.263Z,17.60
2022-09-23T03:20:58.692Z,17.62
2022-09-23T03:23:28.866Z,17.62
2022-09-23T03:25:56.059Z,17.64
2022-09-23T03:28:22.816Z,17.63
2022-09-23T03:30:50.119Z,17.64
2022-09-23T03:33:18.141Z,17.64
2022-09-23T03:35:48.820Z,17.64
2022-09-23T03:38:16.171Z,17.63
2022-09-23T03:40:44.977Z,17.62
2022-09-23T03:43:11.495Z,17.60
2022-09-23T03:45:38.616Z,17.64
2022-09-23T03:48:05.016Z,17.64
2022-09-23T03:50:31.399Z,17.64
2022-09-23T03:52:57.729Z,17.60
2022-09-23T03:55:24.063Z,17.61
2022-09-23T03:57:51.691Z,17.58
2022-09-23T04:00:18.044Z,17.62
2022-09-23T04:02:44.405Z,17.64
2022-09-23T04:05:11.527Z,17.71
2022-09-23T04:07:38.029Z,17.68
2022-09-23T04:10:05.090Z,17.64
2022-09-23T04:12:31.521Z,17.60
2022-09-23T04:14:59.172Z,17.63
2022-09-23T04:17:25.614Z,17.63
2022-09-23T04:19:51.936Z,17.61
2022-09-23T04:22:18.479Z,17.59
2022-09-23T04:24:44.792Z,17.58
2022-09-23T04:27:11.152Z,17.59
2022-09-23T04:29:37.470Z,17.59
2022-09-23T04:32:05.124Z,17.58
2022-09-23T04:34:31.436Z,17.56
2022-09-23T04:36:57.762Z,17.55
2022-09-23T04:39:24.147Z,17.57
2022-09-23T04:41:50.548Z,17.60
2022-09-23T04:44:16.866Z,17.60
2022-09-23T04:46:43.819Z,17.59
2022-09-23T04:49:11.593Z,17.57
2022-09-23T04:51:37.932Z,17.58
2022-09-23T04:54:04.407Z,17.58
2022-09-23T04:56:31.015Z,17.58
2022-09-23T04:58:57.385Z,17.63
2022-09-23T05:01:24.843Z,17.71
2022-09-23T05:03:51.720Z,17.71
2022-09-23T05:06:19.390Z,17.71
2022-09-23T05:08:47.398Z,17.67
2022-09-23T05:11:13.718Z,17.45
2022-09-23T05:13:40.136Z,17.46
2022-09-23T05:16:07.405Z,17.39
2022-09-23T05:18:34.137Z,17.18
2022-09-23T05:21:00.539Z,17.12
2022-09-23T05:23:28.542Z,17.10
2022-09-23T05:25:56.574Z,17.09
2022-09-23T05:28:22.934Z,17.40
2022-09-23T05:30:49.264Z,17.48
2022-09-23T05:33:15.606Z,17.50
2022-09-23T05:35:45.931Z,17.55
2022-09-23T05:38:12.278Z,17.53
2022-09-23T05:40:39.971Z,17.62
2022-09-23T05:43:06.402Z,17.64
2022-09-23T05:45:32.835Z,17.57
2022-09-23T05:47:59.204Z,17.54
2022-09-23T05:50:25.559Z,17.67
2022-09-23T05:52:51.978Z,17.72
2022-09-23T05:55:18.319Z,17.72
2022-09-23T05:57:45.951Z,17.73
2022-09-23T06:00:12.459Z,17.75
2022-09-23T06:02:38.851Z,17.75
2022-09-23T06:05:05.572Z,17.78
2022-09-23T06:07:31.865Z,17.76
2022-09-23T06:09:58.290Z,17.75
2022-09-23T06:12:24.627Z,17.77
2022-09-23T06:14:52.311Z,17.78
2022-09-23T06:17:18.796Z,17.79
2022-09-23T06:19:45.126Z,17.77
2022-09-23T06:22:11.553Z,17.75
2022-09-23T06:24:38.017Z,17.76
2022-09-23T06:27:04.409Z,17.62
2022-09-23T06:29:30.728Z,17.42
2022-09-23T06:31:58.414Z,17.58
2022-09-23T06:34:24.791Z,17.61
2022-09-23T06:36:51.104Z,17.64
2022-09-23T06:39:17.433Z,17.58
2022-09-23T06:41:44.123Z,17.64
2022-09-23T06:44:10.554Z,17.59
2022-09-23T06:46:37.085Z,17.53
2022-09-23T06:49:04.943Z,17.52
2022-09-23T06:51:31.293Z,17.48
2022-09-23T06:53:57.682Z,17.44
2022-09-23T06:56:24.144Z,17.44
2022-09-23T06:58:51.471Z,17.40
2022-09-23T07:01:17.994Z,17.44
2022-09-23T07:03:45.185Z,17.56
2022-09-23T07:06:13.413Z,17.73
2022-09-23T07:08:42.182Z,17.76
2022-09-23T07:11:09.350Z,17.80
2022-09-23T07:13:35.731Z,17.83
2022-09-23T07:16:02.582Z,17.85
2022-09-23T07:18:34.256Z,17.87
2022-09-23T07:21:06.759Z,17.85
2022-09-23T07:23:34.423Z,17.82
2022-09-23T07:26:01.171Z,17.77
2022-09-23T07:28:27.716Z,17.65
2022-09-23T07:31:00.073Z,17.74
2022-09-23T07:33:32.029Z,17.73
2022-09-23T07:35:59.085Z,17.65
2022-09-23T07:38:25.466Z,17.54
2022-09-23T07:40:53.207Z,17.58
2022-09-23T07:43:19.810Z,17.58
2022-09-23T07:45:46.180Z,17.73
2022-09-23T07:48:12.666Z,17.71
2022-09-23T07:50:39.337Z,17.74
2022-09-23T07:53:05.804Z,17.72
2022-09-23T07:55:32.300Z,17.63
2022-09-23T07:57:59.939Z,17.56
2022-09-23T08:00:26.554Z,17.59
2022-09-23T08:02:53.303Z,17.57
2022-09-23T08:05:19.674Z,17.58
2022-09-23T08:07:46.094Z,17.71
2022-09-23T08:10:12.610Z,17.76
2022-09-23T08:12:38.947Z,17.77
2022-09-23T08:15:06.979Z,17.79
2022-09-23T08:17:33.446Z,17.85
2022-09-23T08:19:59.798Z,17.97
2022-09-23T08:22:26.216Z,17.97
2022-09-23T08:24:54.990Z,17.96
2022-09-23T08:27:22.592Z,17.99
2022-09-23T08:29:49.045Z,18.15
2022-09-23T08:32:16.773Z,18.13
2022-09-23T08:34:43.127Z,18.10
2022-09-23T08:37:09.758Z,18.07
2022-09-23T08:39:36.091Z,18.02
2022-09-23T08:42:07.093Z,18.05
2022-09-23T08:44:42.813Z,18.05
2022-09-23T08:47:12.817Z,18.05
2022-09-23T08:49:41.733Z,18.07
2022-09-23T08:52:13.827Z,18.01
2022-09-23T08:54:40.660Z,18.03
2022-09-23T08:57:07.711Z,18.14
2022-09-23T08:59:37.673Z,18.16
2022-09-23T09:02:06.573Z,18.19
2022-09-23T09:04:38.937Z,18.19
2022-09-23T09:10:03.295Z,18.11
2022-09-23T09:12:32.957Z,18.06
2022-09-23T09:15:02.242Z,18.12
2022-09-23T09:17:35.220Z,18.16
2022-09-23T09:20:04.749Z,18.17
2022-09-23T09:22:41.629Z,18.27
2022-09-23T09:25:16.720Z,18.24
2022-09-23T09:27:43.405Z,18.33
2022-09-23T09:30:12.371Z,18.31
2022-09-23T09:32:42.659Z,18.28
2022-09-23T09:35:18.051Z,18.41
2022-09-23T09:37:46.445Z,18.38
2022-09-23T09:40:13.316Z,18.39
2022-09-23T09:42:40.495Z,18.43
2022-09-23T09:45:12.395Z,18.41
2022-09-23T09:47:41.919Z,18.46
2022-09-23T09:50:09.330Z,18.47
2022-09-23T09:52:39.544Z,18.47
2022-09-23T09:55:16.903Z,18.44
2022-09-23T09:57:45.959Z,18.46
2022-09-23T10:00:33.958Z,18.46
2022-09-23T10:03:01.720Z,18.43
2022-09-23T10:05:31.668Z,18.41
2022-09-23T10:08:15.042Z,18.36
2022-09-23T10:10:50.255Z,18.36
2022-09-23T10:13:19.534Z,18.44
2022-09-23T10:15:46.005Z,18.47
2022-09-23T10:18:19.447Z,18.50
2022-09-23T10:20:46.379Z,18.52
2022-09-23T10:23:16.138Z,18.54
2022-09-23T10:25:42.570Z,18.56
2022-09-23T10:28:23.862Z,18.57
2022-09-23T10:31:03.212Z,18.55
2022-09-23T10:33:31.242Z,18.55
2022-09-23T10:35:57.834Z,18.53
2022-09-23T10:38:24.238Z,18.56
2022-09-23T10:40:50.730Z,18.57
2022-09-23T10:43:22.433Z,18.59
2022-09-23T10:45:49.427Z,18.59
2022-09-23T10:48:19.833Z,18.60
2022-09-23T10:50:47.772Z,18.59
2022-09-23T10:53:17.986Z,18.62
2022-09-23T10:55:52.854Z,18.60
2022-09-23T10:58:28.330Z,18.58
2022-09-23T11:01:01.664Z,18.59
2022-09-23T11:03:38.691Z,18.63
2022-09-23T11:06:12.939Z,18.67
2022-09-23T11:08:49.241Z,18.65
2022-09-23T11:11:21.644Z,18.70
2022-09-23T11:13:58.164Z,18.75
2022-09-23T11:16:30.149Z,18.78
2022-09-23T11:19:05.448Z,18.79
2022-09-23T11:21:37.014Z,18.82
2022-09-23T11:24:11.624Z,18.87
2022-09-23T11:26:42.691Z,18.90
2022-09-23T11:29:18.171Z,18.81
2022-09-23T11:31:48.706Z,18.72
2022-09-23T11:34:26.331Z,18.74
2022-09-23T11:36:56.665Z,18.74
2022-09-23T11:39:25.404Z,18.70
2022-09-23T11:41:54.079Z,18.70
2022-09-23T11:44:23.381Z,18.72
2022-09-23T11:46:51.423Z,18.79
2022-09-23T11:49:20.365Z,18.78
2022-09-23T11:51:53.877Z,18.84
2022-09-23T11:54:22.099Z,18.88
2022-09-23T11:56:51.519Z,18.89
2022-09-23T11:59:33.660Z,18.89
2022-09-23T12:02:15.073Z,18.89
2022-09-23T12:04:55.745Z,18.90
2022-09-23T12:07:29.028Z,19.04
2022-09-23T12:09:58.676Z,18.96
2022-09-23T12:12:29.321Z,19.00
2022-09-23T12:14:59.724Z,19.02
2022-09-23T12:17:34.134Z,19.06
2022-09-23T12:20:07.609Z,19.00
2022-09-23T12:22:43.056Z,18.95
2022-09-23T12:25:15.451Z,18.93
2022-09-23T12:27:43.874Z,18.94
2022-09-23T12:30:23.219Z,18.91
2022-09-23T12:32:49.796Z,18.93
2022-09-23T12:35:24.227Z,18.93
2022-09-23T12:37:52.883Z,18.89
2022-09-23T12:40:22.422Z,18.89
2022-09-23T12:42:49.597Z,18.84
2022-09-23T12:45:18.073Z,18.87
2022-09-23T12:47:44.867Z,18.88
2022-09-23T12:50:26.052Z,18.87
2022-09-23T12:52:53.704Z,18.85
2022-09-23T12:55:34.880Z,18.92
2022-09-23T12:58:01.267Z,18.94
2022-09-23T13:00:32.173Z,18.94
2022-09-23T13:03:00.756Z,18.91
2022-09-23T13:05:27.115Z,18.92
2022-09-23T13:07:59.944Z,18.90
2022-09-23T13:10:28.795Z,18.86
2022-09-23T13:12:55.541Z,18.91
2022-09-23T13:15:26.452Z,18.93
2022-09-23T13:17:52.787Z,18.89
2022-09-23T13:20:33.989Z,18.87
2022-09-23T13:23:15.143Z,18.98
2022-09-23T13:25:43.490Z,18.98
2022-09-23T13:28:18.252Z,18.96
2022-09-23T13:30:47.736Z,18.97
2022-09-23T13:33:16.236Z,18.99
2022-09-23T13:35:44.417Z,19.08
2022-09-23T13:38:11.584Z,19.02
2022-09-23T13:40:38.683Z,18.96
2022-09-23T13:43:09.042Z,18.88
2022-09-23T13:45:37.387Z,18.96
2022-09-23T13:48:05.237Z,18.99
2022-09-23T13:50:34.984Z,19.01
2022-09-23T13:53:05.789Z,18.98
2022-09-23T13:55:33.488Z,19.01
2022-09-23T13:58:01.441Z,19.01
2022-09-23T14:00:32.012Z,19.06
2022-09-23T14:02:58.445Z,19.06
2022-09-23T14:05:26.148Z,19.08
2022-09-23T14:07:53.657Z,19.15
2022-09-23T14:10:22.082Z,19.16
2022-09-23T14:12:49.473Z,19.18
2022-09-23T14:15:16.945Z,19.20
2022-09-23T14:17:46.975Z,19.21
2022-09-23T14:20:14.341Z,19.20
2022-09-23T14:22:40.720Z,19.19
2022-09-23T14:25:12.589Z,19.21
2022-09-23T14:27:40.694Z,19.20
2022-09-23T14:30:13.573Z,19.22
2022-09-23T14:32:39.926Z,19.22
2022-09-23T14:35:16.568Z,19.24
2022-09-23T14:37:44.046Z,19.23
2022-09-23T14:40:12.853Z,19.23
2022-09-23T14:42:42.305Z,19.24
2022-09-23T14:45:12.823Z,19.21
2022-09-23T14:47:43.082Z,19.22
2022-09-23T14:50:16.008Z,19.24
2022-09-23T14:52:48.499Z,19.23
2022-09-23T14:55:15.240Z,19.25
2022-09-23T14:57:42.172Z,19.24
2022-09-23T15:00:14.068Z,19.26
2022-09-23T15:02:42.887Z,19.24
2022-09-23T15:05:16.628Z,19.24
2022-09-23T15:07:44.079Z,19.24
2022-09-23T15:10:16.251Z,19.26
2022-09-23T15:12:43.523Z,19.25
2022-09-23T15:15:12.126Z,19.24
2022-09-23T15:17:40.605Z,19.24
2022-09-23T15:20:08.265Z,19.24
2022-09-23T15:22:43.975Z,19.24
2022-09-23T15:25:14.505Z,19.23
2022-09-23T15:27:40.883Z,19.22
2022-09-23T15:30:14.866Z,19.22
2022-09-23T15:32:41.628Z,19.22
2022-09-23T15:35:08.645Z,19.21
2022-09-23T15:37:36.396Z,19.20
2022-09-23T15:40:04.842Z,19.23
2022-09-23T15:42:31.432Z,19.25
2022-09-23T15:44:57.985Z,19.24
2022-09-23T15:47:24.334Z,19.24
2022-09-23T15:49:50.737Z,19.25
2022-09-23T15:52:17.200Z,19.24
2022-09-23T15:54:43.552Z,19.24
2022-09-23T15:57:11.204Z,19.24
2022-09-23T15:59:37.524Z,19.30
2022-09-23T16:02:06.717Z,19.36
2022-09-23T16:04:33.146Z,19.40
2022-09-23T16:06:59.579Z,19.40
2022-09-23T16:09:25.990Z,19.40
2022-09-23T16:11:52.446Z,19.38
2022-09-23T16:14:20.082Z,19.38
2022-09-23T16:16:46.557Z,19.37
2022-09-23T16:19:12.998Z,19.35
2022-09-23T16:21:40.300Z,19.35
2022-09-23T16:24:12.462Z,19.33
2022-09-23T16:26:40.443Z,19.33
2022-09-23T16:29:06.924Z,19.32
2022-09-23T16:31:34.773Z,19.31
2022-09-23T16:34:01.176Z,19.30
2022-09-23T16:36:28.538Z,19.29
2022-09-23T16:38:55.360Z,19.30
2022-09-23T16:41:22.053Z,19.29
2022-09-23T16:43:48.471Z,19.27
2022-09-23T16:46:15.757Z,19.25
2022-09-23T16:48:48.238Z,19.26
2022-09-23T16:51:18.981Z,19.25
2022-09-23T16:53:45.374Z,19.27
2022-09-23T16:56:11.773Z,19.25
2022-09-23T16:58:38.690Z,19.24
2022-09-23T17:01:05.699Z,19.23
2022-09-23T17:03:32.105Z,19.23
2022-09-23T17:06:03.425Z,19.22
2022-09-23T17:08:32.215Z,19.21
2022-09-23T17:10:59.106Z,19.22
2022-09-23T17:13:26.017Z,19.22
2022-09-23T17:15:53.060Z,19.20
2022-09-23T17:18:19.981Z,19.18
2022-09-23T17:20:56.346Z,19.18
2022-09-23T17:23:23.986Z,19.18
2022-09-23T17:25:50.297Z,19.18
2022-09-23T17:28:16.617Z,19.16
2022-09-23T17:30:43.054Z,19.18
2022-09-23T17:33:09.361Z,19.13
2022-09-23T17:35:38.829Z,19.13
2022-09-23T17:38:05.183Z,19.13
2022-09-23T17:40:32.914Z,19.13
2022-09-23T17:42:59.376Z,19.12
2022-09-23T17:45:25.791Z,19.14
2022-09-23T17:47:52.371Z,19.12
2022-09-23T17:50:18.720Z,19.10
2022-09-23T17:52:45.042Z,19.07
2022-09-23T17:55:11.363Z,19.09
2022-09-23T17:57:39.035Z,19.09
2022-09-23T18:00:05.686Z,19.08
2022-09-23T18:02:32.150Z,19.08
2022-09-23T18:04:58.568Z,19.07
2022-09-23T18:07:24.884Z,19.05
2022-09-23T18:09:51.249Z,19.04
2022-09-23T18:12:17.591Z,19.03
2022-09-23T18:14:45.258Z,19.04
2022-09-23T18:17:11.571Z,19.04
2022-09-23T18:19:38.006Z,19.03
2022-09-23T18:22:04.349Z,19.00
2022-09-23T18:24:33.234Z,18.99
2022-09-23T18:27:00.441Z,18.97
2022-09-23T18:29:26.919Z,19.01
2022-09-23T18:31:54.713Z,19.02
2022-09-23T18:34:21.226Z,19.00
2022-09-23T18:36:47.600Z,19.00
2022-09-23T18:39:13.931Z,19.00
2022-09-23T18:41:40.294Z,19.00
2022-09-23T18:44:06.706Z,19.00
2022-09-23T18:46:33.235Z,18.97
2022-09-23T18:49:00.865Z,18.95
2022-09-23T18:51:27.796Z,18.91
2022-09-23T18:53:55.199Z,18.91
2022-09-23T18:56:21.596Z,18.91
2022-09-23T18:58:48.319Z,18.94
2022-09-23T19:01:15.531Z,18.94
2022-09-23T19:03:42.043Z,18.92
2022-09-23T19:06:11.004Z,18.92
2022-09-23T19:08:37.767Z,18.91
2022-09-23T19:11:05.116Z,18.91
2022-09-23T19:13:31.822Z,18.91
2022-09-23T19:16:01.034Z,18.92
2022-09-23T19:18:27.383Z,18.93
2022-09-23T19:20:53.910Z,18.89
2022-09-23T19:23:21.654Z,18.90
2022-09-23T19:25:48.357Z,18.88
2022-09-23T19:28:14.697Z,18.88
2022-09-23T19:30:41.014Z,18.87
2022-09-23T19:33:07.578Z,18.87
2022-09-23T19:35:33.940Z,18.87
2022-09-23T19:38:00.444Z,18.87
2022-09-23T19:40:28.094Z,18.86
2022-09-23T19:42:54.478Z,18.87
2022-09-23T19:45:21.197Z,18.87
2022-09-23T19:47:47.531Z,18.85
2022-09-23T19:50:13.878Z,18.87
2022-09-23T19:52:40.199Z,18.87
2022-09-23T19:55:07.176Z,18.85
2022-09-23T19:57:34.804Z,18.85
2022-09-23T20:00:01.306Z,18.86
2022-09-23T20:02:27.707Z,18.88
2022-09-23T20:04:54.067Z,18.85
2022-09-23T20:07:20.421Z,18.84
2022-09-23T20:09:46.870Z,18.83
2022-09-23T20:12:13.181Z,18.82
2022-09-23T20:14:40.814Z,18.82
2022-09-23T20:17:07.182Z,18.83
2022-09-23T20:19:33.535Z,18.81
2022-09-23T20:21:59.856Z,18.81
2022-09-23T20:24:28.019Z,18.83
2022-09-23T20:26:54.478Z,18.82
2022-09-23T20:29:20.784Z,18.81
2022-09-23T20:31:48.597Z,18.80
2022-09-23T20:34:14.998Z,18.80
2022-09-23T20:36:41.559Z,18.80
2022-09-23T20:39:08.786Z,18.79
2022-09-23T20:41:35.836Z,18.80
2022-09-23T20:44:02.476Z,18.80
2022-09-23T20:46:29.288Z,18.79
2022-09-23T20:48:57.047Z,18.79
2022-09-23T20:51:23.827Z,18.79
2022-09-23T20:53:50.766Z,18.80
2022-09-23T20:56:17.166Z,18.79
2022-09-23T20:58:43.599Z,18.78
2022-09-23T21:01:10.995Z,18.76
2022-09-23T21:03:38.452Z,18.76
2022-09-23T21:06:07.160Z,18.77
2022-09-23T21:08:34.383Z,18.78
2022-09-23T21:11:01.212Z,18.76
2022-09-23T21:13:27.666Z,18.78
2022-09-23T21:15:54.070Z,18.77
2022-09-23T21:18:22.596Z,18.75
2022-09-23T21:20:56.541Z,18.77
2022-09-23T21:23:25.872Z,18.77
2022-09-23T21:25:52.232Z,18.75
2022-09-23T21:28:18.665Z,18.75
2022-09-23T21:30:48.573Z,18.76
2022-09-23T21:33:18.101Z,18.75
2022-09-23T21:35:44.431Z,18.74
2022-09-23T21:38:10.911Z,18.75
2022-09-23T21:40:38.575Z,18.75
2022-09-23T21:43:04.923Z,18.76
2022-09-23T21:45:31.353Z,18.74
2022-09-23T21:47:57.676Z,18.75
2022-09-23T21:50:23.996Z,18.74
2022-09-23T21:52:50.339Z,18.74
2022-09-23T21:55:16.671Z,18.74
2022-09-23T21:57:44.309Z,18.73
2022-09-23T22:00:11.197Z,18.72
2022-09-23T22:02:37.613Z,18.73
2022-09-23T22:05:04.175Z,18.73
2022-09-23T22:07:30.522Z,18.72
2022-09-23T22:09:56.875Z,18.73
2022-09-23T22:12:23.286Z,18.72
2022-09-23T22:14:50.897Z,18.71
2022-09-23T22:17:17.302Z,18.72
2022-09-23T22:19:46.857Z,18.72
2022-09-23T22:22:14.408Z,18.73
2022-09-23T22:24:40.847Z,18.72
2022-09-23T22:27:07.668Z,18.71
2022-09-23T22:29:34.070Z,18.71
2022-09-23T22:32:02.538Z,18.71
2022-09-23T22:34:48.647Z,18.71
2022-09-23T22:37:16.335Z,18.71
2022-09-23T22:39:42.662Z,18.70
2022-09-23T22:42:09.074Z,18.70
2022-09-23T22:44:35.385Z,18.71
2022-09-23T22:47:03.083Z,18.71
2022-09-23T22:49:29.574Z,18.71
2022-09-23T22:51:55.911Z,18.71
2022-09-23T22:54:22.242Z,18.70
2022-09-23T22:56:48.594Z,18.70
2022-09-23T22:59:14.904Z,18.69
2022-09-23T23:01:41.284Z,18.68
2022-09-23T23:04:10.100Z,18.70
2022-09-23T23:06:36.659Z,18.70
2022-09-23T23:09:05.548Z,18.70
2022-09-23T23:11:32.123Z,18.70
2022-09-23T23:13:58.464Z,18.70
2022-09-23T23:16:24.829Z,18.69
2022-09-23T23:18:51.199Z,18.69
2022-09-23T23:21:20.159Z,18.69
2022-09-23T23:23:48.116Z,18.67
2022-09-23T23:26:15.413Z,18.68
2022-09-23T23:28:42.816Z,18.68
2022-09-23T23:31:09.989Z,18.68
2022-09-23T23:33:36.387Z,18.69
2022-09-23T23:36:02.803Z,18.67
2022-09-23T23:38:30.548Z,18.67
2022-09-23T23:40:57.064Z,18.67
2022-09-23T23:43:23.414Z,18.68
2022-09-23T23:45:49.785Z,18.67
2022-09-23T23:48:16.102Z,18.68
2022-09-23T23:50:42.435Z,18.67
2022-09-23T23:53:08.865Z,18.67
2022-09-23T23:55:38.438Z,18.67
2022-09-23T23:58:04.770Z,18.67
